Thunder radar more information blitzortung!


Radar de pluja more information rain snow radar


Visita la nostra xarxa de llocs de meteo:

Template documentation
and downloads

And another site



No particular awareness of the weather is required.    There are no Weather-warnings

Pagina Historial Weather Underground text

Diari Resum Setembre 28, 2017 Unitats:  Imperial    Mètric   Tant
« Previous Dia
SegĂźent Dia »
Diari Setmana Mensual Anual Personalitzada
  Maxima: Minima: Media:
Temperatura: TemperatureC °F 15.3 °F 21.2 °F
Punt de rosada: DewpointC °F 13.2 °F 14.7 °F
Humitat: Humidity % 54 % 67 %
Wind Speed: WindSpeedKMH mph 0.0 mph 5.6 mph
RĂ fegues de vent: WindSpeedGustKMH mph - -
Vent:- - SSE
Pression baro: PressurehPa in 1022.9 in -
Precipitacions: 0.0 in    
Historical Graphs
 
 
Dades de taula per Setembre 28, 2017
Temps Temperatura Punt de rosada Pression baro Vent Wind Speed RĂ fegues de vent Humitat Rainfall Rate (Hourly)
TemperatureC °F DewpointC °F PressurehPa in Calm     Humidity % HourlyPrecipMM in
00:03 17.7 °F 13.6 °F 1024.9 in Calm     77 % 0.0 in
01:35 16.0 °F 13.7 °F 1024.9 in Calm   3.2 mph 86 % 0.0 in
01:45 15.7 °F 13.2 °F 1024.9 in WSW 1.6 mph 3.2 mph 85 % 0.0 in
01:55 15.8 °F 13.4 °F 1026.0 in Calm   3.2 mph 86 % 0.0 in
02:05 16.0 °F 13.8 °F 1026.0 in Calm     87 % 0.0 in
02:15 16.0 °F 13.8 °F 1026.0 in NNE 1.6 mph 3.2 mph 87 % 0.0 in
02:25 15.8 °F 13.4 °F 1024.9 in NE 1.6 mph 3.2 mph 86 % 0.0 in
02:35 15.6 °F 13.3 °F 1024.9 in WSW 1.6 mph 3.2 mph 86 % 0.0 in
02:45 15.6 °F 13.4 °F 1026.0 in Calm   1.6 mph 87 % 0.0 in
02:55 15.6 °F 13.4 °F 1026.0 in Calm     87 % 0.0 in
03:05 15.6 °F 13.6 °F 1026.0 in Calm     88 % 0.0 in
03:15 15.6 °F 13.6 °F 1026.0 in Calm     88 % 0.0 in
03:25 15.3 °F 13.2 °F 1026.0 in WNW 1.6 mph 3.2 mph 87 % 0.0 in
03:35 15.6 °F 13.6 °F 1026.0 in Calm   3.2 mph 88 % 0.0 in
03:45 15.9 °F 13.9 °F 1026.0 in WSW 1.6 mph 3.2 mph 88 % 0.0 in
03:55 16.1 °F 13.9 °F 1026.0 in SW 3.2 mph 3.2 mph 87 % 0.0 in
04:05 16.3 °F 14.1 °F 1026.0 in SW 1.6 mph 3.2 mph 87 % 0.0 in
04:15 16.5 °F 14.5 °F 1026.0 in Calm   1.6 mph 88 % 0.0 in
04:25 16.8 °F 14.6 °F 1026.0 in Calm     87 % 0.0 in
04:35 16.9 °F 14.7 °F 1026.0 in Calm   3.2 mph 87 % 0.0 in
04:45 17.1 °F 14.7 °F 1026.0 in Calm   3.2 mph 86 % 0.0 in
04:55 17.3 °F 14.8 °F 1026.0 in NE 3.2 mph 3.2 mph 85 % 0.0 in
05:05 17.4 °F 14.7 °F 1026.0 in NE 1.6 mph 1.6 mph 84 % 0.0 in
05:15 17.8 °F 14.9 °F 1027.0 in NE 3.2 mph 4.8 mph 83 % 0.0 in
05:25 18.1 °F 15.0 °F 1027.0 in NE 1.6 mph 3.2 mph 82 % 0.0 in
05:35 18.2 °F 14.9 °F 1027.0 in NNE 3.2 mph 6.4 mph 81 % 0.0 in
05:45 18.4 °F 14.9 °F 1027.0 in NE 4.8 mph 6.4 mph 80 % 0.0 in
10:47 18.8 °F 15.1 °F 1027.0 in ENE 5.6 mph 5.6 mph 79 % 0.0 in
10:52 19.0 °F 15.1 °F 1027.0 in WNW 2.3 mph 2.3 mph 78 % 0.0 in
10:57 19.2 °F 15.3 °F 1027.0 in ENE 3.7 mph 3.7 mph 78 % 0.0 in
11:02 19.3 °F 15.2 °F 1028.0 in NNW 5.6 mph 5.6 mph 77 % 0.0 in
11:07 19.5 °F 15.3 °F 1028.0 in NNE 3.7 mph 3.7 mph 77 % 0.0 in
11:12 19.6 °F 15.4 °F 1028.0 in ENE 6.9 mph 6.9 mph 77 % 0.0 in
11:17 19.9 °F 15.6 °F 1028.0 in ENE 5.6 mph 5.6 mph 76 % 0.0 in
11:19 20.0 °F 15.7 °F 1028.0 in NE 7.4 mph 7.4 mph 76 % 0.0 in
11:24 20.5 °F 15.7 °F 1028.0 in NNE 7.4 mph 7.4 mph 74 % 0.0 in
11:29 20.8 °F 16.0 °F 1028.0 in NE 9.5 mph 9.5 mph 74 % 0.0 in
11:34 21.2 °F 16.4 °F 1027.0 in NNE 7.4 mph 7.4 mph 74 % 0.0 in
11:39 21.4 °F 16.3 °F 1027.0 in ENE 5.8 mph 5.8 mph 73 % 0.0 in
11:44 21.5 °F 16.2 °F 1027.0 in East 4.2 mph 4.2 mph 72 % 0.0 in
11:54 22.3 °F 16.6 °F 1027.0 in ESE 5.6 mph 5.6 mph 70 % 0.0 in
11:59 22.0 °F 16.3 °F 1027.0 in ENE 7.4 mph 7.4 mph 70 % 0.0 in
12:04 22.1 °F 16.2 °F 1027.0 in ESE 7.4 mph 7.4 mph 69 % 0.0 in
12:09 22.1 °F 16.2 °F 1027.0 in SW 3.7 mph 3.7 mph 69 % 0.0 in
12:14 22.4 °F 16.2 °F 1027.0 in ESE 5.6 mph 5.6 mph 68 % 0.0 in
12:19 22.2 °F 16.0 °F 1027.0 in NNW 5.6 mph 5.6 mph 68 % 0.0 in
12:20 22.2 °F 16.0 °F 1027.0 in NNW 3.7 mph 3.7 mph 68 % 0.0 in
12:25 22.5 °F 16.1 °F 1027.0 in North 3.7 mph 3.7 mph 67 % 0.0 in
12:30 22.7 °F 16.3 °F 1027.0 in West 3.9 mph 3.9 mph 67 % 0.0 in
12:35 23.3 °F 16.6 °F 1026.0 in ESE 2.6 mph   66 % 0.0 in
12:40 23.3 °F 16.1 °F 1026.0 in ESE 9.3 mph 9.3 mph 64 % 0.0 in
12:45 23.1 °F 15.9 °F 1026.0 in East 7.9 mph 7.9 mph 64 % 0.0 in
12:50 23.0 °F 15.8 °F 1026.0 in SSE 7.4 mph 7.4 mph 64 % 0.0 in
12:55 23.6 °F 16.4 °F 1026.0 in ENE 3.7 mph 3.7 mph 64 % 0.0 in
13:00 23.6 °F 16.2 °F 1026.0 in East 5.6 mph 5.6 mph 63 % 0.0 in
13:05 23.8 °F 16.3 °F 1024.9 in SSE 1.9 mph 1.9 mph 63 % 0.0 in
13:10 24.6 °F 16.6 °F 1024.9 in SSE 3.7 mph 3.7 mph 61 % 0.0 in
13:15 24.3 °F 15.5 °F 1024.9 in SSE 9.3 mph 9.3 mph 58 % 0.0 in
13:20 24.4 °F 16.1 °F 1026.0 in South 3.7 mph 3.7 mph 60 % 0.0 in
13:25 24.8 °F 16.2 °F 1026.0 in ENE 9.3 mph 9.3 mph 59 % 0.0 in
13:26 24.7 °F 16.2 °F 1026.0 in East 9.3 mph 9.3 mph 59 % 0.0 in
13:31 24.5 °F 15.7 °F 1026.0 in ENE 5.6 mph 5.6 mph 58 % 0.0 in
13:36 24.3 °F 15.2 °F 1026.0 in ESE 7.4 mph 7.6 mph 57 % 0.0 in
13:41 23.9 °F 15.4 °F 1026.0 in ESE 9.7 mph 9.7 mph 59 % 0.0 in
13:46 24.3 °F 15.2 °F 1026.0 in East 7.9 mph 9.5 mph 57 % 0.0 in
13:51 24.2 °F 15.2 °F 1026.0 in ESE 12.2 mph 12.2 mph 57 % 0.0 in
13:56 24.3 °F 15.2 °F 1026.0 in East 10.0 mph 10.0 mph 57 % 0.0 in
14:01 24.6 °F 15.5 °F 1026.0 in ENE 9.3 mph 9.3 mph 57 % 0.0 in
14:06 24.9 °F 15.5 °F 1026.0 in ESE 11.1 mph 11.1 mph 56 % 0.0 in
14:11 24.2 °F 14.9 °F 1026.0 in East 13.0 mph 13.0 mph 56 % 0.0 in
14:16 24.3 °F 14.9 °F 1026.0 in ESE 16.7 mph 16.7 mph 56 % 0.0 in
14:21 24.3 °F 14.7 °F 1026.0 in ESE 16.7 mph 16.7 mph 55 % 0.0 in
14:26 24.3 °F 14.9 °F 1026.0 in East 13.0 mph 13.0 mph 56 % 0.0 in
14:36 24.6 °F 15.2 °F 1026.0 in ESE 11.1 mph 11.1 mph 56 % 0.0 in
14:41 24.3 °F 15.2 °F 1026.0 in ESE 10.3 mph 10.3 mph 57 % 0.0 in
14:46 24.7 °F 15.6 °F 1024.9 in SSE 13.0 mph 13.0 mph 57 % 0.0 in
14:51 25.1 °F 15.7 °F 1024.9 in SSE 5.6 mph 5.6 mph 56 % 0.0 in
14:56 25.2 °F 15.8 °F 1024.9 in East 11.1 mph 11.1 mph 56 % 0.0 in
15:01 24.8 °F 15.7 °F 1024.9 in South 13.0 mph 13.0 mph 57 % 0.0 in
15:06 24.9 °F 15.5 °F 1024.9 in SSW 7.4 mph 7.4 mph 56 % 0.0 in
15:11 24.8 °F 15.7 °F 1024.9 in SW 12.6 mph 12.6 mph 57 % 0.0 in
15:16 24.6 °F 15.5 °F 1024.9 in ENE 6.4 mph 6.4 mph 57 % 0.0 in
15:21 24.3 °F 15.2 °F 1024.9 in ESE 9.5 mph 9.5 mph 57 % 0.0 in
15:26 24.3 °F 15.5 °F 1024.9 in ESE 9.7 mph 9.7 mph 58 % 0.0 in
15:31 24.3 °F 15.2 °F 1024.9 in ESE 11.1 mph 11.1 mph 57 % 0.0 in
15:36 23.8 °F 15.3 °F 1024.9 in ESE 11.4 mph 11.4 mph 59 % 0.0 in
15:41 23.6 °F 15.1 °F 1024.9 in ESE 9.3 mph 9.3 mph 59 % 0.0 in
15:46 23.5 °F 15.0 °F 1023.9 in ESE 9.3 mph 9.3 mph 59 % 0.0 in
15:51 23.7 °F 15.2 °F 1023.9 in ESE 5.6 mph 5.6 mph 59 % 0.0 in
15:56 23.5 °F 15.0 °F 1023.9 in East 13.0 mph 13.0 mph 59 % 0.0 in
16:01 23.7 °F 15.5 °F 1023.9 in SSW 5.6 mph 5.6 mph 60 % 0.0 in
16:06 23.6 °F 15.4 °F 1023.9 in ESE 9.3 mph 9.3 mph 60 % 0.0 in
16:11 23.4 °F 15.2 °F 1023.9 in East 9.3 mph 9.3 mph 60 % 0.0 in
16:16 23.4 °F 15.2 °F 1023.9 in ESE 9.3 mph 9.3 mph 60 % 0.0 in
16:21 23.5 °F 15.3 °F 1023.9 in East 7.6 mph 7.6 mph 60 % 0.0 in
16:26 23.3 °F 15.1 °F 1023.9 in East 7.4 mph 7.4 mph 60 % 0.0 in
16:31 23.3 °F 15.1 °F 1024.9 in East 13.0 mph 13.0 mph 60 % 0.0 in
16:36 23.3 °F 15.1 °F 1024.9 in ESE 9.5 mph 9.5 mph 60 % 0.0 in
16:41 23.3 °F 15.1 °F 1024.9 in ESE 11.1 mph 11.1 mph 60 % 0.0 in
16:46 23.2 °F 15.0 °F 1023.9 in SE 13.0 mph 13.0 mph 60 % 0.0 in
16:51 23.5 °F 15.3 °F 1023.9 in South 7.4 mph 7.4 mph 60 % 0.0 in
16:56 23.7 °F 15.2 °F 1023.9 in South 7.4 mph 7.4 mph 59 % 0.0 in
17:01 23.7 °F 15.2 °F 1023.9 in South 5.6 mph 5.6 mph 59 % 0.0 in
17:06 23.6 °F 15.1 °F 1023.9 in East 5.6 mph 5.6 mph 59 % 0.0 in
17:07 23.6 °F 15.1 °F 1023.9 in ESE 6.1 mph 6.1 mph 59 % 0.0 in
17:12 23.5 °F 15.0 °F 1023.9 in ENE 7.4 mph 7.4 mph 59 % 0.0 in
17:17 23.6 °F 14.8 °F 1023.9 in ESE 7.4 mph 7.4 mph 58 % 0.0 in
17:22 23.9 °F 15.4 °F 1023.9 in SE 7.4 mph 7.4 mph 59 % 0.0 in
17:27 24.2 °F 15.2 °F 1023.9 in South 7.4 mph 7.4 mph 57 % 0.0 in
17:32 24.3 °F 15.2 °F 1023.9 in North 3.7 mph 3.7 mph 57 % 0.0 in
17:37 24.6 °F 15.5 °F 1023.9 in WSW 5.8 mph 5.8 mph 57 % 0.0 in
17:42 24.9 °F 15.5 °F 1023.9 in SW 7.4 mph 7.4 mph 56 % 0.0 in
17:47 25.3 °F 15.3 °F 1023.9 in SSW 7.4 mph 7.4 mph 54 % 0.0 in
17:52 25.4 °F 15.4 °F 1023.9 in SSW 7.4 mph 7.4 mph 54 % 0.0 in
17:57 25.1 °F 15.1 °F 1023.9 in SSW 11.1 mph 11.1 mph 54 % 0.0 in
18:02 24.7 °F 15.1 °F 1023.9 in SW 7.4 mph 7.4 mph 55 % 0.0 in
18:07 24.9 °F 14.9 °F 1023.9 in West 7.4 mph 7.4 mph 54 % 0.0 in
18:12 24.9 °F 14.9 °F 1023.9 in South 4.2 mph 4.2 mph 54 % 0.0 in
18:17 24.9 °F 14.9 °F 1023.9 in SSW 7.4 mph 7.4 mph 54 % 0.0 in
18:22 24.7 °F 14.8 °F 1023.9 in SW 14.8 mph 14.8 mph 54 % 0.0 in
18:27 24.6 °F 14.7 °F 1023.9 in SW 9.3 mph 9.3 mph 54 % 0.0 in
18:32 24.5 °F 14.6 °F 1023.9 in SW 7.4 mph 7.4 mph 54 % 0.0 in
18:37 24.4 °F 14.5 °F 1023.9 in SSW 9.3 mph 9.3 mph 54 % 0.0 in
18:42 24.2 °F 14.6 °F 1023.9 in SW 9.3 mph 9.3 mph 55 % 0.0 in
18:47 23.8 °F 14.5 °F 1023.9 in SW 7.4 mph 7.4 mph 56 % 0.0 in
18:52 23.8 °F 14.5 °F 1023.9 in SSW 7.4 mph 7.4 mph 56 % 0.0 in
18:57 23.7 °F 14.4 °F 1023.9 in SSE 5.6 mph 5.6 mph 56 % 0.0 in
19:02 23.5 °F 14.2 °F 1023.9 in SW 9.3 mph 9.3 mph 56 % 0.0 in
19:07 23.2 °F 14.2 °F 1023.9 in WSW 5.6 mph 5.6 mph 57 % 0.0 in
19:12 22.9 °F 13.9 °F 1023.9 in SW 5.6 mph 5.6 mph 57 % 0.0 in
19:17 22.7 °F 13.7 °F 1023.9 in SW 7.6 mph 7.6 mph 57 % 0.0 in
19:22 22.4 °F 13.7 °F 1023.9 in South 9.3 mph 9.3 mph 58 % 0.0 in
19:27 22.2 °F 13.6 °F 1023.9 in SW 9.5 mph 9.5 mph 58 % 0.0 in
19:29 22.1 °F 13.7 °F 1023.9 in SW 11.1 mph 11.1 mph 59 % 0.0 in
19:34 21.9 °F 13.8 °F 1022.9 in WSW 9.5 mph 9.5 mph 60 % 0.0 in
19:39 21.7 °F 13.8 °F 1022.9 in SSW 7.4 mph 7.4 mph 61 % 0.0 in
19:44 21.5 °F 13.7 °F 1022.9 in South 6.4 mph 6.4 mph 61 % 0.0 in
19:49 21.3 °F 13.7 °F 1023.9 in SW 7.4 mph 7.4 mph 62 % 0.0 in
19:54 21.2 °F 13.9 °F 1023.9 in SW 7.4 mph 7.4 mph 63 % 0.0 in
19:59 21.0 °F 13.7 °F 1023.9 in SW 11.1 mph 11.1 mph 63 % 0.0 in
20:04 20.9 °F 13.8 °F 1022.9 in SSW 5.6 mph 5.6 mph 64 % 0.0 in
20:09 20.8 °F 14.0 °F 1022.9 in WSW 7.4 mph 7.4 mph 65 % 0.0 in
20:14 20.7 °F 13.9 °F 1022.9 in SW 7.4 mph 7.4 mph 65 % 0.0 in
20:19 20.6 °F 14.0 °F 1022.9 in SW 5.6 mph 5.6 mph 66 % 0.0 in
20:24 20.5 °F 13.9 °F 1022.9 in West 5.6 mph 5.6 mph 66 % 0.0 in
20:25 20.5 °F 13.9 °F 1022.9 in WSW 5.6 mph 5.6 mph 66 % 0.0 in
20:30 20.4 °F 14.1 °F 1022.9 in SW 3.9 mph 3.9 mph 67 % 0.0 in
20:35 20.3 °F 13.9 °F 1022.9 in SW 3.9 mph 4.2 mph 67 % 0.0 in
20:40 20.2 °F 14.1 °F 1022.9 in SW 5.6 mph 5.6 mph 68 % 0.0 in
20:45 20.1 °F 14.0 °F 1022.9 in South 9.3 mph 9.3 mph 68 % 0.0 in
20:50 20.0 °F 14.1 °F 1022.9 in SSW 5.6 mph 5.6 mph 69 % 0.0 in
20:55 20.0 °F 14.1 °F 1022.9 in SW 5.6 mph 5.6 mph 69 % 0.0 in
21:00 19.9 °F 14.5 °F 1022.9 in WSW 3.9 mph 3.9 mph 71 % 0.0 in
21:05 19.8 °F 14.4 °F 1023.9 in SSW 5.6 mph 5.6 mph 71 % 0.0 in
21:10 19.8 °F 14.4 °F 1023.9 in WSW 3.7 mph 4.2 mph 71 % 0.0 in
21:15 19.7 °F 14.5 °F 1023.9 in SW 5.0 mph 5.0 mph 72 % 0.0 in
21:20 19.6 °F 14.4 °F 1023.9 in SW 4.2 mph 4.2 mph 72 % 0.0 in
21:25 19.6 °F 14.4 °F 1023.9 in SW 3.9 mph 3.9 mph 72 % 0.0 in
21:30 19.5 °F 14.6 °F 1023.9 in SW 3.2 mph 3.2 mph 73 % 0.0 in
21:35 19.5 °F 14.6 °F 1023.9 in WSW 1.9 mph 1.9 mph 73 % 0.0 in
21:40 19.4 °F 14.4 °F 1023.9 in Calm     73 % 0.0 in
21:45 19.3 °F 14.3 °F 1023.9 in Calm     73 % 0.0 in
21:50 19.3 °F 14.6 °F 1024.9 in Calm     74 % 0.0 in
21:55 19.2 °F 14.4 °F 1024.9 in NW 1.4 mph   74 % 0.0 in
22:00 19.1 °F 14.3 °F 1024.9 in Calm     74 % 0.0 in
22:05 19.0 °F 14.3 °F 1024.9 in NNW 1.9 mph 1.9 mph 74 % 0.0 in
22:10 19.0 °F 14.3 °F 1024.9 in Calm     74 % 0.0 in
22:15 19.0 °F 14.3 °F 1024.9 in WNW 2.6 mph   74 % 0.0 in
22:20 19.0 °F 14.3 °F 1024.9 in West 1.9 mph 2.3 mph 74 % 0.0 in
22:25 18.9 °F 14.6 °F 1024.9 in West 1.4 mph   76 % 0.0 in
22:30 18.9 °F 14.6 °F 1024.9 in Calm     76 % 0.0 in
22:35 18.8 °F 14.5 °F 1026.0 in Calm     76 % 0.0 in
22:40 18.7 °F 14.4 °F 1026.0 in Calm     76 % 0.0 in
22:45 18.6 °F 14.3 °F 1026.0 in Calm     76 % 0.0 in
22:50 18.5 °F 14.4 °F 1026.0 in Calm     77 % 0.0 in
22:55 18.4 °F 14.3 °F 1026.0 in Calm     77 % 0.0 in
23:00 18.3 °F 14.2 °F 1026.0 in West 1.9 mph 1.9 mph 77 % 0.0 in
23:06 18.2 °F 14.1 °F 1026.0 in West 1.9 mph 1.9 mph 77 % 0.0 in
23:11 18.2 °F 14.1 °F 1026.0 in West 1.4 mph   77 % 0.0 in
23:16 18.1 °F 14.0 °F 1026.0 in West 1.9 mph 1.9 mph 77 % 0.0 in
23:21 18.0 °F 13.9 °F 1026.0 in West 1.9 mph 1.9 mph 77 % 0.0 in
23:26 18.0 °F 14.1 °F 1026.0 in Calm     78 % 0.0 in
23:31 18.0 °F 14.1 °F 1026.0 in Calm     78 % 0.0 in
23:36 17.9 °F 14.0 °F 1026.0 in Calm     78 % 0.0 in
23:41 17.9 °F 14.0 °F 1026.0 in Calm     78 % 0.0 in
23:46 17.9 °F 14.0 °F 1026.0 in Calm     78 % 0.0 in
23:51 17.8 °F 14.1 °F 1026.0 in Calm     79 % 0.0 in
23:56 17.7 °F 14.0 °F 1026.0 in NNW 2.3 mph 2.3 mph 79 % 0.0 in
Meteo Sesrovires
Elogis d' Weather Underground - 1.5 mb

Guio original per  Jim McMurry - jmcmurry@mwt.net Adaptat per a la plantilla per  Wim van der Kuil - Leuven-Template.eu

Trobareu la nostra informacio del temps tambe a:

Weather Underground

AWEKAS